sensor_id;sensor_type;location;lat;lon;timestamp;pressure;altitude;pressure_sealevel;temperature;humidity
11190;BME280;5651;50.926;4.718;2023-02-23T00:01:36;101116.38;;;8.88;100.00
11190;BME280;5651;50.926;4.718;2023-02-23T00:04:02;101120.72;;;8.88;100.00
11190;BME280;5651;50.926;4.718;2023-02-23T00:06:29;101117.25;;;8.84;100.00
11190;BME280;5651;50.926;4.718;2023-02-23T00:08:56;101119.84;;;8.83;100.00
11190;BME280;5651;50.926;4.718;2023-02-23T00:11:23;101115.50;;;8.83;100.00
11190;BME280;5651;50.926;4.718;2023-02-23T00:13:49;101114.63;;;8.84;100.00
11190;BME280;5651;50.926;4.718;2023-02-23T00:16:20;101115.50;;;8.83;100.00
11190;BME280;5651;50.926;4.718;2023-02-23T00:18:51;101112.84;;;8.80;100.00
11190;BME280;5651;50.926;4.718;2023-02-23T00:21:21;101120.66;;;8.80;100.00
11190;BME280;5651;50.926;4.718;2023-02-23T00:23:52;101113.72;;;8.76;100.00
11190;BME280;5651;50.926;4.718;2023-02-23T00:26:20;101113.72;;;8.75;100.00
11190;BME280;5651;50.926;4.718;2023-02-23T00:28:48;101113.72;;;8.75;100.00
11190;BME280;5651;50.926;4.718;2023-02-23T00:31:15;101111.13;;;8.75;100.00
11190;BME280;5651;50.926;4.718;2023-02-23T00:33:42;101113.72;;;8.75;100.00
11190;BME280;5651;50.926;4.718;2023-02-23T00:36:12;101110.25;;;8.76;100.00
11190;BME280;5651;50.926;4.718;2023-02-23T00:38:40;101114.56;;;8.75;100.00
11190;BME280;5651;50.926;4.718;2023-02-23T00:41:11;101111.13;;;8.78;100.00
11190;BME280;5651;50.926;4.718;2023-02-23T00:43:40;101113.72;;;8.78;100.00
11190;BME280;5651;50.926;4.718;2023-02-23T00:46:14;101110.25;;;8.76;100.00
11190;BME280;5651;50.926;4.718;2023-02-23T00:48:45;101110.25;;;8.76;100.00
11190;BME280;5651;50.926;4.718;2023-02-23T00:51:11;101107.63;;;8.74;100.00
11190;BME280;5651;50.926;4.718;2023-02-23T00:53:37;101106.78;;;8.75;100.00
11190;BME280;5651;50.926;4.718;2023-02-23T00:56:04;101111.97;;;8.74;100.00
11190;BME280;5651;50.926;4.718;2023-02-23T00:58:30;101111.97;;;8.74;100.00
11190;BME280;5651;50.926;4.718;2023-02-23T01:26:46;101117.16;;;8.74;100.00
11190;BME280;5651;50.926;4.718;2023-02-23T01:29:15;101123.22;;;8.72;100.00
11190;BME280;5651;50.926;4.718;2023-02-23T01:31:44;101116.28;;;8.73;100.00
11190;BME280;5651;50.926;4.718;2023-02-23T01:34:12;101118.03;;;8.74;100.00
11190;BME280;5651;50.926;4.718;2023-02-23T01:40:31;101116.28;;;8.73;100.00
11190;BME280;5651;50.926;4.718;2023-02-23T01:43:18;101116.28;;;8.73;100.00
11190;BME280;5651;50.926;4.718;2023-02-23T01:45:56;101115.41;;;8.74;100.00
11190;BME280;5651;50.926;4.718;2023-02-23T01:48:27;101119.75;;;8.74;100.00
11190;BME280;5651;50.926;4.718;2023-02-23T01:51:16;101115.41;;;8.72;100.00
11190;BME280;5651;50.926;4.718;2023-02-23T01:53:47;101114.56;;;8.74;100.00
11190;BME280;5651;50.926;4.718;2023-02-23T01:56:30;101117.16;;;8.74;100.00
11190;BME280;5651;50.926;4.718;2023-02-23T01:59:00;101119.75;;;8.75;100.00
11190;BME280;5651;50.926;4.718;2023-02-23T02:01:27;101120.63;;;8.74;100.00
11190;BME280;5651;50.926;4.718;2023-02-23T02:04:01;101117.16;;;8.75;100.00
11190;BME280;5651;50.926;4.718;2023-02-23T02:06:30;101121.53;;;8.79;100.00
11190;BME280;5651;50.926;4.718;2023-02-23T02:08:59;101118.91;;;8.78;100.00
11190;BME280;5651;50.926;4.718;2023-02-23T02:11:31;101118.94;;;8.81;100.00
11190;BME280;5651;50.926;4.718;2023-02-23T02:14:07;101118.06;;;8.80;100.00
11190;BME280;5651;50.926;4.718;2023-02-23T02:22:56;101117.19;;;8.78;100.00
11190;BME280;5651;50.926;4.718;2023-02-23T02:25:26;101118.06;;;8.77;100.00
11190;BME280;5651;50.926;4.718;2023-02-23T02:41:34;101105.06;;;8.79;100.00
11190;BME280;5651;50.926;4.718;2023-02-23T02:44:31;101103.31;;;8.76;100.00
11190;BME280;5651;50.926;4.718;2023-02-23T02:47:06;101099.88;;;8.76;100.00
11190;BME280;5651;50.926;4.718;2023-02-23T02:49:51;101098.13;;;8.75;100.00
11190;BME280;5651;50.926;4.718;2023-02-23T02:52:34;101110.25;;;8.77;100.00
11190;BME280;5651;50.926;4.718;2023-02-23T02:55:08;101104.19;;;8.75;100.00
11190;BME280;5651;50.926;4.718;2023-02-23T02:57:37;101111.97;;;8.74;100.00
11190;BME280;5651;50.926;4.718;2023-02-23T03:00:05;101115.47;;;8.76;100.00
11190;BME280;5651;50.926;4.718;2023-02-23T03:02:50;101113.69;;;8.73;100.00
11190;BME280;5651;50.926;4.718;2023-02-23T03:05:46;101113.69;;;8.73;100.00
11190;BME280;5651;50.926;4.718;2023-02-23T03:08:39;101112.81;;;8.74;100.00
11190;BME280;5651;50.926;4.718;2023-02-23T03:11:39;101114.56;;;8.75;100.00
11190;BME280;5651;50.926;4.718;2023-02-23T03:21:24;101113.72;;;8.75;100.00
11190;BME280;5651;50.926;4.718;2023-02-23T03:24:13;101118.91;;;8.76;100.00
11190;BME280;5651;50.926;4.718;2023-02-23T03:27:07;101123.25;;;8.76;100.00
11190;BME280;5651;50.926;4.718;2023-02-23T03:30:10;101118.94;;;8.81;100.00
11190;BME280;5651;50.926;4.718;2023-02-23T03:33:01;101123.25;;;8.80;100.00
11190;BME280;5651;50.926;4.718;2023-02-23T03:36:12;101125.00;;;8.80;100.00
11190;BME280;5651;50.926;4.718;2023-02-23T03:39:20;101118.91;;;8.78;100.00
11190;BME280;5651;50.926;4.718;2023-02-23T03:42:10;101125.84;;;8.77;100.00
11190;BME280;5651;50.926;4.718;2023-02-23T03:44:58;101124.97;;;8.75;100.00
11190;BME280;5651;50.926;4.718;2023-02-23T03:47:45;101125.81;;;8.74;100.00
11190;BME280;5651;50.926;4.718;2023-02-23T03:50:34;101136.19;;;8.72;100.00
11190;BME280;5651;50.926;4.718;2023-02-23T03:53:25;101131.88;;;8.73;100.00
11190;BME280;5651;50.926;4.718;2023-02-23T03:56:12;101143.16;;;8.72;100.00
11190;BME280;5651;50.926;4.718;2023-02-23T03:59:01;101144.00;;;8.71;100.00
11190;BME280;5651;50.926;4.718;2023-02-23T04:01:50;101144.84;;;8.71;100.00
11190;BME280;5651;50.926;4.718;2023-02-23T04:04:37;101150.94;;;8.72;100.00
11190;BME280;5651;50.926;4.718;2023-02-23T04:07:22;101144.00;;;8.71;100.00
11190;BME280;5651;50.926;4.718;2023-02-23T04:10:08;101146.59;;;8.71;100.00
11190;BME280;5651;50.926;4.718;2023-02-23T04:15:59;101147.44;;;8.68;100.00
11190;BME280;5651;50.926;4.718;2023-02-23T04:18:29;101157.78;;;8.64;100.00
11190;BME280;5651;50.926;4.718;2023-02-23T04:20:56;101154.31;;;8.62;100.00
11190;BME280;5651;50.926;4.718;2023-02-23T04:23:22;101156.00;;;8.61;100.00
11190;BME280;5651;50.926;4.718;2023-02-23T04:25:49;101165.53;;;8.59;100.00
11190;BME280;5651;50.926;4.718;2023-02-23T04:28:15;101166.34;;;8.55;100.00
11190;BME280;5651;50.926;4.718;2023-02-23T04:30:42;101162.91;;;8.56;100.00
11190;BME280;5651;50.926;4.718;2023-02-23T04:33:08;101169.81;;;8.54;100.00
11190;BME280;5651;50.926;4.718;2023-02-23T04:35:34;101173.25;;;8.48;100.00
11190;BME280;5651;50.926;4.718;2023-02-23T04:38:00;101176.69;;;8.47;100.00
11190;BME280;5651;50.926;4.718;2023-02-23T04:40:26;101172.34;;;8.48;100.00
11190;BME280;5651;50.926;4.718;2023-02-23T04:42:52;101179.22;;;8.44;100.00
11190;BME280;5651;50.926;4.718;2023-02-23T04:45:19;101174.88;;;8.41;100.00
11190;BME280;5651;50.926;4.718;2023-02-23T04:47:45;101178.34;;;8.42;100.00
11190;BME280;5651;50.926;4.718;2023-02-23T04:50:11;101171.38;;;8.38;100.00
11190;BME280;5651;50.926;4.718;2023-02-23T04:52:37;101173.97;;;8.38;100.00
11190;BME280;5651;50.926;4.718;2023-02-23T04:55:04;101169.63;;;8.37;100.00
11190;BME280;5651;50.926;4.718;2023-02-23T04:57:32;101170.47;;;8.36;100.00
11190;BME280;5651;50.926;4.718;2023-02-23T04:59:58;101172.22;;;8.37;100.00
11190;BME280;5651;50.926;4.718;2023-02-23T05:02:25;101185.19;;;8.37;100.00
11190;BME280;5651;50.926;4.718;2023-02-23T05:04:51;101181.72;;;8.35;100.00
11190;BME280;5651;50.926;4.718;2023-02-23T05:07:17;101179.97;;;8.32;100.00
11190;BME280;5651;50.926;4.718;2023-02-23T05:09:42;101176.50;;;8.32;100.00
11190;BME280;5651;50.926;4.718;2023-02-23T05:12:08;101180.81;;;8.31;100.00
11190;BME280;5651;50.926;4.718;2023-02-23T05:14:34;101186.88;;;8.30;100.00
11190;BME280;5651;50.926;4.718;2023-02-23T05:17:00;101187.75;;;8.31;100.00
11190;BME280;5651;50.926;4.718;2023-02-23T05:19:26;101185.13;;;8.29;100.00
11190;BME280;5651;50.926;4.718;2023-02-23T05:21:52;101186.00;;;8.28;100.00
11190;BME280;5651;50.926;4.718;2023-02-23T05:24:18;101185.09;;;8.28;100.00
11190;BME280;5651;50.926;4.718;2023-02-23T05:26:44;101186.84;;;8.25;100.00
11190;BME280;5651;50.926;4.718;2023-02-23T05:29:10;101190.28;;;8.23;100.00
11190;BME280;5651;50.926;4.718;2023-02-23T05:31:36;101194.56;;;8.22;100.00
11190;BME280;5651;50.926;4.718;2023-02-23T05:34:02;101193.69;;;8.20;100.00
11190;BME280;5651;50.926;4.718;2023-02-23T05:36:28;101205.81;;;8.21;100.00
11190;BME280;5651;50.926;4.718;2023-02-23T05:38:54;101204.97;;;8.21;100.00
11190;BME280;5651;50.926;4.718;2023-02-23T05:41:21;101204.97;;;8.21;100.00
11190;BME280;5651;50.926;4.718;2023-02-23T05:43:49;101206.66;;;8.20;100.00
11190;BME280;5651;50.926;4.718;2023-02-23T05:46:22;101210.13;;;8.19;100.00
11190;BME280;5651;50.926;4.718;2023-02-23T05:48:49;101212.72;;;8.19;100.00
11190;BME280;5651;50.926;4.718;2023-02-23T05:51:16;101215.31;;;8.19;100.00
11190;BME280;5651;50.926;4.718;2023-02-23T05:53:43;101214.44;;;8.19;100.00
11190;BME280;5651;50.926;4.718;2023-02-23T05:56:13;101211.84;;;8.17;100.00
11190;BME280;5651;50.926;4.718;2023-02-23T05:58:42;101211.84;;;8.17;100.00
11190;BME280;5651;50.926;4.718;2023-02-23T06:01:08;101206.66;;;8.17;100.00
11190;BME280;5651;50.926;4.718;2023-02-23T06:03:34;101211.00;;;8.18;100.00
11190;BME280;5651;50.926;4.718;2023-02-23T06:06:00;101214.44;;;8.17;100.00
11190;BME280;5651;50.926;4.718;2023-02-23T06:08:25;101210.09;;;8.16;100.00
11190;BME280;5651;50.926;4.718;2023-02-23T06:10:52;101209.19;;;8.16;100.00
11190;BME280;5651;50.926;4.718;2023-02-23T06:13:18;101219.63;;;8.17;100.00
11190;BME280;5651;50.926;4.718;2023-02-23T06:15:45;101219.59;;;8.16;100.00
11190;BME280;5651;50.926;4.718;2023-02-23T06:18:11;101220.47;;;8.15;100.00
11190;BME280;5651;50.926;4.718;2023-02-23T06:20:37;101221.31;;;8.15;100.00
11190;BME280;5651;50.926;4.718;2023-02-23T06:23:03;101219.56;;;8.11;100.00
11190;BME280;5651;50.926;4.718;2023-02-23T06:25:30;101225.59;;;8.10;100.00
11190;BME280;5651;50.926;4.718;2023-02-23T06:27:56;101229.03;;;8.09;100.00
11190;BME280;5651;50.926;4.718;2023-02-23T06:30:21;101228.16;;;8.07;100.00
11190;BME280;5651;50.926;4.718;2023-02-23T06:32:48;101232.44;;;8.05;100.00
11190;BME280;5651;50.926;4.718;2023-02-23T06:35:14;101236.75;;;8.03;100.00
11190;BME280;5651;50.926;4.718;2023-02-23T06:37:40;101242.78;;;8.00;100.00
11190;BME280;5651;50.926;4.718;2023-02-23T06:40:06;101247.09;;;8.00;100.00
11190;BME280;5651;50.926;4.718;2023-02-23T06:42:32;101247.94;;;7.99;100.00
11190;BME280;5651;50.926;4.718;2023-02-23T06:45:03;101246.19;;;7.98;100.00
11190;BME280;5651;50.926;4.718;2023-02-23T06:47:29;101249.66;;;7.97;100.00
11190;BME280;5651;50.926;4.718;2023-02-23T06:49:55;101253.97;;;7.96;100.00
11190;BME280;5651;50.926;4.718;2023-02-23T06:52:21;101252.25;;;7.97;100.00
11190;BME280;5651;50.926;4.718;2023-02-23T06:54:48;101256.56;;;7.96;100.00
11190;BME280;5651;50.926;4.718;2023-02-23T06:57:14;101262.59;;;7.95;100.00
11190;BME280;5651;50.926;4.718;2023-02-23T06:59:40;101267.84;;;7.97;100.00
11190;BME280;5651;50.926;4.718;2023-02-23T07:02:09;101273.03;;;7.97;100.00
11190;BME280;5651;50.926;4.718;2023-02-23T07:04:35;101265.19;;;7.95;100.00
11190;BME280;5651;50.926;4.718;2023-02-23T07:07:01;101266.09;;;7.96;100.00
11190;BME280;5651;50.926;4.718;2023-02-23T07:09:28;101268.69;;;7.96;100.00
11190;BME280;5651;50.926;4.718;2023-02-23T07:11:53;101272.13;;;7.95;100.00
11190;BME280;5651;50.926;4.718;2023-02-23T07:14:19;101271.28;;;7.96;100.00
11190;BME280;5651;50.926;4.718;2023-02-23T07:16:45;101280.75;;;7.95;100.00
11190;BME280;5651;50.926;4.718;2023-02-23T07:19:11;101280.75;;;7.95;100.00
11190;BME280;5651;50.926;4.718;2023-02-23T07:21:36;101290.31;;;7.98;100.00
11190;BME280;5651;50.926;4.718;2023-02-23T07:24:02;101293.78;;;7.98;100.00
11190;BME280;5651;50.926;4.718;2023-02-23T07:26:31;101282.56;;;7.99;100.00
11190;BME280;5651;50.926;4.718;2023-02-23T07:28:58;101287.78;;;8.01;100.00
11190;BME280;5651;50.926;4.718;2023-02-23T07:31:24;101295.59;;;8.04;100.00
11190;BME280;5651;50.926;4.718;2023-02-23T07:33:51;101294.72;;;8.05;100.00
11190;BME280;5651;50.926;4.718;2023-02-23T07:36:20;101299.97;;;8.08;100.00
11190;BME280;5651;50.926;4.718;2023-02-23T07:38:46;101311.25;;;8.10;100.00
11190;BME280;5651;50.926;4.718;2023-02-23T07:41:12;101312.13;;;8.12;100.00
11190;BME280;5651;50.926;4.718;2023-02-23T07:43:38;101318.22;;;8.14;100.00
11190;BME280;5651;50.926;4.718;2023-02-23T07:46:04;101324.31;;;8.16;100.00
11190;BME280;5651;50.926;4.718;2023-02-23T07:48:30;101319.13;;;8.18;100.00
11190;BME280;5651;50.926;4.718;2023-02-23T07:50:56;101316.56;;;8.19;100.00
11190;BME280;5651;50.926;4.718;2023-02-23T07:53:22;101328.66;;;8.20;100.00
11190;BME280;5651;50.926;4.718;2023-02-23T07:55:56;101326.97;;;8.22;100.00
11190;BME280;5651;50.926;4.718;2023-02-23T07:58:22;101338.25;;;8.24;100.00
11190;BME280;5651;50.926;4.718;2023-02-23T08:00:47;101346.91;;;8.25;100.00
11190;BME280;5651;50.926;4.718;2023-02-23T08:03:13;101349.50;;;8.25;100.00
11190;BME280;5651;50.926;4.718;2023-02-23T08:05:39;101348.66;;;8.26;100.00
11190;BME280;5651;50.926;4.718;2023-02-23T08:08:05;101357.34;;;8.28;100.00
11190;BME280;5651;50.926;4.718;2023-02-23T08:10:31;101364.28;;;8.31;100.00
11190;BME280;5651;50.926;4.718;2023-02-23T08:12:57;101364.28;;;8.31;100.00
11190;BME280;5651;50.926;4.718;2023-02-23T08:15:24;101367.75;;;8.31;100.00
11190;BME280;5651;50.926;4.718;2023-02-23T08:17:50;101366.91;;;8.31;100.00
11190;BME280;5651;50.926;4.718;2023-02-23T08:20:16;101372.13;;;8.34;100.00
11190;BME280;5651;50.926;4.718;2023-02-23T08:22:42;101377.34;;;8.34;100.00
11190;BME280;5651;50.926;4.718;2023-02-23T08:25:08;101379.94;;;8.37;100.00
11190;BME280;5651;50.926;4.718;2023-02-23T08:27:36;101368.72;;;8.38;100.00
11190;BME280;5651;50.926;4.718;2023-02-23T08:30:03;101376.56;;;8.41;100.00
11190;BME280;5651;50.926;4.718;2023-02-23T08:32:32;101377.47;;;8.45;100.00
11190;BME280;5651;50.926;4.718;2023-02-23T08:35:00;101383.63;;;8.50;100.00
11190;BME280;5651;50.926;4.718;2023-02-23T08:37:30;101380.19;;;8.52;100.00
11190;BME280;5651;50.926;4.718;2023-02-23T08:39:56;101381.09;;;8.54;100.00
11190;BME280;5651;50.926;4.718;2023-02-23T08:42:23;101384.59;;;8.61;100.00
11190;BME280;5651;50.926;4.718;2023-02-23T08:44:49;101376.00;;;8.64;100.00
11190;BME280;5651;50.926;4.718;2023-02-23T08:47:15;101383.81;;;8.64;100.00
11190;BME280;5651;50.926;4.718;2023-02-23T08:49:48;101383.84;;;8.68;100.00
11190;BME280;5651;50.926;4.718;2023-02-23T08:52:15;101385.63;;;8.71;100.00
11190;BME280;5651;50.926;4.718;2023-02-23T08:54:41;101388.22;;;8.74;100.00
11190;BME280;5651;50.926;4.718;2023-02-23T08:57:06;101393.47;;;8.79;100.00
11190;BME280;5651;50.926;4.718;2023-02-23T08:59:32;101396.13;;;8.82;100.00
11190;BME280;5651;50.926;4.718;2023-02-23T09:01:58;101403.09;;;8.86;100.00
11190;BME280;5651;50.926;4.718;2023-02-23T09:04:24;101396.22;;;8.90;100.00
11190;BME280;5651;50.926;4.718;2023-02-23T09:06:49;101401.47;;;8.96;100.00
11190;BME280;5651;50.926;4.718;2023-02-23T09:09:16;101398.91;;;9.00;100.00
11190;BME280;5651;50.926;4.718;2023-02-23T09:11:42;101411.06;;;9.03;100.00
11190;BME280;5651;50.926;4.718;2023-02-23T09:14:08;101410.28;;;9.09;100.00
11190;BME280;5651;50.926;4.718;2023-02-23T09:16:34;101413.81;;;9.14;100.00
11190;BME280;5651;50.926;4.718;2023-02-23T09:19:01;101406.88;;;9.13;100.00
11190;BME280;5651;50.926;4.718;2023-02-23T09:21:27;101413.78;;;9.12;100.00
11190;BME280;5651;50.926;4.718;2023-02-23T09:23:55;101413.78;;;9.12;100.00
11190;BME280;5651;50.926;4.718;2023-02-23T09:26:22;101413.84;;;9.17;100.00
11190;BME280;5651;50.926;4.718;2023-02-23T09:28:49;101417.31;;;9.19;100.00
11190;BME280;5651;50.926;4.718;2023-02-23T09:31:18;101435.53;;;9.17;100.00
11190;BME280;5651;50.926;4.718;2023-02-23T09:33:44;101426.03;;;9.21;100.00
11190;BME280;5651;50.926;4.718;2023-02-23T09:36:17;101432.94;;;9.20;100.00
11190;BME280;5651;50.926;4.718;2023-02-23T09:38:46;101432.03;;;9.17;100.00
11190;BME280;5651;50.926;4.718;2023-02-23T09:49:39;101447.75;;;9.26;100.00
11190;BME280;5651;50.926;4.718;2023-02-23T09:52:21;101441.69;;;9.29;100.00
11190;BME280;5651;50.926;4.718;2023-02-23T09:54:48;101449.56;;;9.35;100.00
11190;BME280;5651;50.926;4.718;2023-02-23T09:57:22;101445.31;;;9.43;100.00
11190;BME280;5651;50.926;4.718;2023-02-23T09:59:49;101447.91;;;9.43;100.00
11190;BME280;5651;50.926;4.718;2023-02-23T10:05:08;101451.56;;;9.62;100.00
11190;BME280;5651;50.926;4.718;2023-02-23T10:10:48;101455.09;;;9.72;100.00
11190;BME280;5651;50.926;4.718;2023-02-23T10:13:25;101456.03;;;9.79;100.00
11190;BME280;5651;50.926;4.718;2023-02-23T10:16:12;101450.84;;;9.80;100.00
11190;BME280;5651;50.926;4.718;2023-02-23T10:21:55;101459.59;;;9.87;100.00
11190;BME280;5651;50.926;4.718;2023-02-23T10:24:40;101455.28;;;9.89;100.00
11190;BME280;5651;50.926;4.718;2023-02-23T10:27:13;101461.38;;;9.97;100.00
11190;BME280;5651;50.926;4.718;2023-02-23T10:29:45;101457.97;;;10.02;100.00
11190;BME280;5651;50.926;4.718;2023-02-23T10:32:38;101457.19;;;10.13;100.00
11190;BME280;5651;50.926;4.718;2023-02-23T10:35:11;101449.44;;;10.27;100.00
11190;BME280;5651;50.926;4.718;2023-02-23T10:37:37;101445.97;;;10.27;100.00
11190;BME280;5651;50.926;4.718;2023-02-23T10:40:04;101453.81;;;10.31;100.00
11190;BME280;5651;50.926;4.718;2023-02-23T10:42:30;101444.31;;;10.37;100.00
11190;BME280;5651;50.926;4.718;2023-02-23T10:44:58;101452.19;;;10.46;100.00
11190;BME280;5651;50.926;4.718;2023-02-23T10:47:35;101457.50;;;10.61;100.00
11190;BME280;5651;50.926;4.718;2023-02-23T10:50:02;101444.47;;;10.63;100.00
11190;BME280;5651;50.926;4.718;2023-02-23T10:54:56;101446.25;;;10.76;100.00
11190;BME280;5651;50.926;4.718;2023-02-23T10:57:29;101443.69;;;10.80;100.00
11190;BME280;5651;50.926;4.718;2023-02-23T11:00:23;101440.22;;;10.85;100.00
11190;BME280;5651;50.926;4.718;2023-02-23T11:02:52;101442.84;;;10.87;100.00
11190;BME280;5651;50.926;4.718;2023-02-23T11:05:45;101450.69;;;10.96;100.00
11190;BME280;5651;50.926;4.718;2023-02-23T11:08:24;101451.56;;;10.97;100.00
11190;BME280;5651;50.926;4.718;2023-02-23T11:13:42;101452.47;;;11.06;100.00
11190;BME280;5651;50.926;4.718;2023-02-23T11:16:14;101452.47;;;11.06;100.00
11190;BME280;5651;50.926;4.718;2023-02-23T11:18:47;101444.69;;;11.20;100.00
11190;BME280;5651;50.926;4.718;2023-02-23T11:21:25;101447.28;;;11.17;100.00
11190;BME280;5651;50.926;4.718;2023-02-23T11:23:53;101446.41;;;11.23;100.00
11190;BME280;5651;50.926;4.718;2023-02-23T11:26:41;101449.06;;;11.32;100.00
11190;BME280;5651;50.926;4.718;2023-02-23T11:29:20;101446.47;;;11.35;100.00
11190;BME280;5651;50.926;4.718;2023-02-23T11:31:55;101449.94;;;11.53;100.00
11190;BME280;5651;50.926;4.718;2023-02-23T11:34:28;101448.25;;;11.69;100.00
11190;BME280;5651;50.926;4.718;2023-02-23T11:37:04;101443.03;;;11.63;100.00
11190;BME280;5651;50.926;4.718;2023-02-23T11:39:31;101437.81;;;11.63;100.00
11190;BME280;5651;50.926;4.718;2023-02-23T11:42:23;101448.25;;;11.69;100.00
11190;BME280;5651;50.926;4.718;2023-02-23T11:45:10;101435.16;;;11.61;100.00
11190;BME280;5651;50.926;4.718;2023-02-23T11:47:43;101435.16;;;11.52;100.00
11190;BME280;5651;50.926;4.718;2023-02-23T11:50:24;101431.69;;;11.62;100.00
11190;BME280;5651;50.926;4.718;2023-02-23T11:52:55;101423.84;;;11.57;100.00
11190;BME280;5651;50.926;4.718;2023-02-23T11:55:27;101422.13;;;11.53;100.00
11190;BME280;5651;50.926;4.718;2023-02-23T11:58:07;101429.06;;;11.53;100.00
11190;BME280;5651;50.926;4.718;2023-02-23T12:00:33;101433.44;;;11.62;100.00
11190;BME280;5651;50.926;4.718;2023-02-23T12:03:00;101436.94;;;11.59;100.00
11190;BME280;5651;50.926;4.718;2023-02-23T12:05:30;101439.53;;;11.54;100.00
11190;BME280;5651;50.926;4.718;2023-02-23T12:08:15;101438.66;;;11.46;100.00
11190;BME280;5651;50.926;4.718;2023-02-23T12:10:52;101436.00;;;11.38;100.00
11190;BME280;5651;50.926;4.718;2023-02-23T12:13:35;101425.56;;;11.32;100.00
11190;BME280;5651;50.926;4.718;2023-02-23T12:16:28;101425.56;;;11.38;100.00
11190;BME280;5651;50.926;4.718;2023-02-23T12:24:51;101423.78;;;11.11;100.00
11190;BME280;5651;50.926;4.718;2023-02-23T12:27:58;101422.03;;;11.08;100.00
11190;BME280;5651;50.926;4.718;2023-02-23T12:30:59;101418.59;;;11.13;100.00
11190;BME280;5651;50.926;4.718;2023-02-23T12:33:34;101431.63;;;11.13;100.00
11190;BME280;5651;50.926;4.718;2023-02-23T12:38:48;101429.81;;;10.99;100.00
11190;BME280;5651;50.926;4.718;2023-02-23T12:41:31;101430.72;;;11.06;100.00
11190;BME280;5651;50.926;4.718;2023-02-23T12:46:49;101426.34;;;10.94;100.00
11190;BME280;5651;50.926;4.718;2023-02-23T12:49:51;101427.22;;;10.93;100.00
11190;BME280;5651;50.926;4.718;2023-02-23T12:52:31;101427.22;;;10.99;100.00
11190;BME280;5651;50.926;4.718;2023-02-23T12:54:59;101424.63;;;11.01;100.00
11190;BME280;5651;50.926;4.718;2023-02-23T12:57:34;101422.00;;;10.99;100.00
11190;BME280;5651;50.926;4.718;2023-02-23T13:03:04;101423.75;;;10.97;100.00
11190;BME280;5651;50.926;4.718;2023-02-23T13:08:46;101436.81;;;11.11;100.00
11190;BME280;5651;50.926;4.718;2023-02-23T13:16:50;101429.06;;;11.28;100.00
11190;BME280;5651;50.926;4.718;2023-02-23T13:24:39;101430.78;;;11.21;100.00
11190;BME280;5651;50.926;4.718;2023-02-23T13:27:14;101422.94;;;11.18;100.00
11190;BME280;5651;50.926;4.718;2023-02-23T13:29:45;101418.59;;;11.26;100.00
11190;BME280;5651;50.926;4.718;2023-02-23T13:32:16;101419.47;;;11.21;100.00
11190;BME280;5651;50.926;4.718;2023-02-23T13:34:48;101415.97;;;11.19;100.00
11190;BME280;5651;50.926;4.718;2023-02-23T13:37:21;101422.09;;;11.22;100.00
11190;BME280;5651;50.926;4.718;2023-02-23T13:40:19;101419.41;;;11.02;100.00
11190;BME280;5651;50.926;4.718;2023-02-23T13:45:42;101424.63;;;11.01;100.00
11190;BME280;5651;50.926;4.718;2023-02-23T13:48:15;101426.38;;;10.99;100.00
11190;BME280;5651;50.926;4.718;2023-02-23T13:56:06;101433.25;;;10.81;100.00
11190;BME280;5651;50.926;4.718;2023-02-23T13:58:33;101436.72;;;10.75;100.00
11190;BME280;5651;50.926;4.718;2023-02-23T14:01:08;101430.56;;;10.66;100.00
11190;BME280;5651;50.926;4.718;2023-02-23T14:04:12;101431.47;;;10.65;100.00
11190;BME280;5651;50.926;4.718;2023-02-23T14:06:38;101438.38;;;10.58;100.00
11190;BME280;5651;50.926;4.718;2023-02-23T14:09:17;101447.03;;;10.51;100.00
11190;BME280;5651;50.926;4.718;2023-02-23T14:11:50;101444.44;;;10.58;100.00
11190;BME280;5651;50.926;4.718;2023-02-23T14:20:05;101440.03;;;10.43;100.00
11190;BME280;5651;50.926;4.718;2023-02-23T14:31:04;101442.59;;;10.37;100.00
11190;BME280;5651;50.926;4.718;2023-02-23T14:33:55;101432.97;;;10.30;100.00
11190;BME280;5651;50.926;4.718;2023-02-23T14:44:14;101452.97;;;10.33;100.00
11190;BME280;5651;50.926;4.718;2023-02-23T14:49:27;101444.28;;;10.34;100.00
11190;BME280;5651;50.926;4.718;2023-02-23T14:51:59;101440.78;;;10.33;100.00
11190;BME280;5651;50.926;4.718;2023-02-23T14:54:34;101437.41;;;10.39;100.00
11190;BME280;5651;50.926;4.718;2023-02-23T14:57:03;101447.81;;;10.39;100.00
11190;BME280;5651;50.926;4.718;2023-02-23T14:59:40;101448.72;;;10.42;100.00
11190;BME280;5651;50.926;4.718;2023-02-23T15:02:22;101447.00;;;10.44;100.00
11190;BME280;5651;50.926;4.718;2023-02-23T15:04:48;101453.94;;;10.45;100.00
11190;BME280;5651;50.926;4.718;2023-02-23T15:07:41;101455.66;;;10.42;100.00
11190;BME280;5651;50.926;4.718;2023-02-23T15:10:16;101454.81;;;10.46;100.00
11190;BME280;5651;50.926;4.718;2023-02-23T15:12:45;101452.19;;;10.48;100.00
11190;BME280;5651;50.926;4.718;2023-02-23T15:15:23;101447.84;;;10.43;100.00
11190;BME280;5651;50.926;4.718;2023-02-23T15:17:52;101447.81;;;10.40;100.00
11190;BME280;5651;50.926;4.718;2023-02-23T15:20:22;101446.97;;;10.38;100.00
11190;BME280;5651;50.926;4.718;2023-02-23T15:22:53;101443.50;;;10.41;100.00
11190;BME280;5651;50.926;4.718;2023-02-23T15:25:24;101448.69;;;10.39;100.00
11190;BME280;5651;50.926;4.718;2023-02-23T15:27:51;101447.84;;;10.42;100.00
11190;BME280;5651;50.926;4.718;2023-02-23T15:30:26;101455.69;;;10.50;100.00
11190;BME280;5651;50.926;4.718;2023-02-23T15:33:09;101439.19;;;10.52;100.00
11190;BME280;5651;50.926;4.718;2023-02-23T15:38:26;101451.38;;;10.55;100.00
11190;BME280;5651;50.926;4.718;2023-02-23T15:41:00;101451.38;;;10.53;100.00
11190;BME280;5651;50.926;4.718;2023-02-23T15:43:27;101457.47;;;10.55;100.00
11190;BME280;5651;50.926;4.718;2023-02-23T15:45:59;101445.34;;;10.57;100.00
11190;BME280;5651;50.926;4.718;2023-02-23T15:51:04;101451.38;;;10.53;100.00
11190;BME280;5651;50.926;4.718;2023-02-23T15:53:34;101455.72;;;10.53;100.00